createdAt,value
2022-12-18T00:01:32.440Z,21.80
2022-12-18T00:06:30.900Z,22.60
2022-12-18T00:08:59.169Z,23.20
2022-12-18T00:11:30.535Z,23.30
2022-12-18T00:16:28.741Z,22.40
2022-12-18T00:19:01.077Z,21.60
2022-12-18T00:21:30.449Z,22.60
2022-12-18T00:23:58.864Z,20.70
2022-12-18T00:26:30.922Z,20.20
2022-12-18T00:29:05.598Z,21.00
2022-12-18T00:31:34.019Z,21.10
2022-12-18T00:34:02.143Z,21.00
2022-12-18T00:36:34.474Z,21.30
2022-12-18T00:39:06.025Z,21.20
2022-12-18T00:41:52.782Z,20.60
2022-12-18T00:44:21.024Z,20.20
2022-12-18T00:46:49.711Z,20.00
2022-12-18T00:49:19.994Z,20.60
2022-12-18T00:51:48.745Z,22.70
2022-12-18T00:54:17.295Z,20.80
2022-12-18T00:56:49.442Z,20.90
2022-12-18T00:59:19.097Z,19.80
2022-12-18T01:01:47.619Z,22.00
2022-12-18T01:04:16.268Z,20.00
2022-12-18T01:06:43.707Z,19.90
2022-12-18T01:09:12.087Z,21.20
2022-12-18T01:11:39.445Z,20.90
2022-12-18T01:14:07.622Z,19.80
2022-12-18T01:16:35.154Z,20.10
2022-12-18T01:19:02.648Z,21.50
2022-12-18T01:21:30.089Z,20.40
2022-12-18T01:23:58.442Z,20.50
2022-12-18T01:26:26.714Z,20.40
2022-12-18T01:28:57.271Z,19.30
2022-12-18T01:31:30.886Z,19.60
2022-12-18T01:33:59.324Z,19.80
2022-12-18T01:36:32.389Z,20.10
2022-12-18T01:39:08.341Z,18.80
2022-12-18T01:41:55.256Z,19.10
2022-12-18T01:44:53.701Z,20.00
2022-12-18T01:47:34.428Z,20.30
2022-12-18T01:50:17.723Z,20.20
2022-12-18T01:52:51.407Z,19.50
2022-12-18T01:55:22.195Z,20.20
2022-12-18T01:57:53.849Z,19.30
2022-12-18T02:00:23.549Z,19.80
2022-12-18T02:02:51.276Z,19.10
2022-12-18T02:06:01.353Z,19.20
2022-12-18T02:08:53.904Z,19.10
2022-12-18T02:11:55.438Z,19.70
2022-12-18T02:14:48.162Z,18.90
2022-12-18T02:17:22.662Z,19.00
2022-12-18T02:20:14.296Z,18.60
2022-12-18T02:26:07.897Z,19.10
2022-12-18T02:28:43.776Z,19.40
2022-12-18T02:31:17.194Z,18.70
2022-12-18T02:33:47.182Z,19.40
2022-12-18T02:36:17.563Z,20.10
2022-12-18T02:38:47.099Z,19.00
2022-12-18T02:41:16.627Z,20.30
2022-12-18T02:43:50.828Z,18.70
2022-12-18T02:46:34.096Z,19.80
2022-12-18T02:49:17.896Z,20.70
2022-12-18T02:52:03.157Z,19.50
2022-12-18T02:54:57.897Z,20.10
2022-12-18T02:57:56.672Z,20.10
2022-12-18T03:00:32.995Z,20.20
2022-12-18T03:03:27.933Z,20.90
2022-12-18T03:06:03.298Z,21.20
2022-12-18T03:08:39.011Z,20.90
2022-12-18T03:11:11.155Z,20.10
2022-12-18T03:13:46.402Z,20.10
2022-12-18T03:16:20.807Z,20.30
2022-12-18T03:18:58.279Z,22.00
2022-12-18T03:21:44.203Z,21.20
2022-12-18T03:24:12.611Z,20.30
2022-12-18T03:26:46.156Z,20.00
2022-12-18T03:29:20.451Z,20.50
2022-12-18T03:31:57.103Z,20.70
2022-12-18T03:34:32.170Z,20.60
2022-12-18T03:36:59.579Z,20.00
2022-12-18T03:39:26.956Z,19.50
2022-12-18T03:41:54.290Z,20.30
2022-12-18T03:44:32.840Z,20.50
2022-12-18T03:47:17.735Z,19.80
2022-12-18T03:50:11.089Z,20.00
2022-12-18T03:52:52.153Z,20.10
2022-12-18T03:55:22.376Z,21.40
2022-12-18T03:57:50.822Z,20.70
2022-12-18T04:00:19.941Z,20.20
2022-12-18T04:02:53.256Z,20.00
2022-12-18T04:05:22.851Z,20.10
2022-12-18T04:07:53.399Z,21.10
2022-12-18T04:10:20.961Z,20.50
2022-12-18T04:12:48.958Z,19.70
2022-12-18T04:15:16.377Z,20.60
2022-12-18T04:17:52.604Z,20.20
2022-12-18T04:20:20.047Z,19.90
2022-12-18T04:22:48.772Z,21.10
2022-12-18T04:25:16.334Z,19.90
2022-12-18T04:27:43.713Z,20.30
2022-12-18T04:30:12.007Z,20.40
2022-12-18T04:32:39.431Z,20.30
2022-12-18T04:35:11.503Z,19.00
2022-12-18T04:37:38.936Z,21.00
2022-12-18T04:40:07.142Z,20.20
2022-12-18T04:42:34.625Z,19.90
2022-12-18T04:45:01.972Z,19.30
2022-12-18T04:47:29.410Z,18.80
2022-12-18T04:49:56.972Z,20.00
2022-12-18T04:52:24.635Z,20.50
2022-12-18T04:54:52.290Z,21.10
2022-12-18T04:57:19.813Z,19.90
2022-12-18T04:59:47.178Z,20.30
2022-12-18T05:02:14.596Z,20.50
2022-12-18T05:04:42.044Z,20.20
2022-12-18T05:07:09.399Z,20.10
2022-12-18T05:09:36.794Z,19.30
2022-12-18T05:12:04.335Z,20.20
2022-12-18T05:14:31.727Z,20.10
2022-12-18T05:17:01.081Z,21.00
2022-12-18T05:19:28.791Z,20.10
2022-12-18T05:21:56.292Z,19.80
2022-12-18T05:24:23.712Z,20.30
2022-12-18T05:26:51.409Z,19.20
2022-12-18T05:29:18.766Z,19.50
2022-12-18T05:31:46.326Z,19.00
2022-12-18T05:34:13.851Z,20.00
2022-12-18T05:36:41.959Z,19.90
2022-12-18T05:39:10.459Z,19.20
2022-12-18T05:41:37.805Z,20.50
2022-12-18T05:44:05.164Z,20.40
2022-12-18T05:46:33.679Z,20.30
2022-12-18T05:49:02.168Z,21.10
2022-12-18T05:51:29.610Z,19.90
2022-12-18T05:53:57.120Z,20.20
2022-12-18T05:56:24.643Z,20.50
2022-12-18T05:58:54.459Z,19.70
2022-12-18T06:01:27.500Z,19.20
2022-12-18T06:03:56.629Z,21.00
2022-12-18T06:06:27.833Z,20.40
2022-12-18T06:08:56.556Z,21.60
2022-12-18T06:11:27.091Z,18.80
2022-12-18T06:13:58.995Z,21.90
2022-12-18T06:16:28.734Z,19.80
2022-12-18T06:19:05.306Z,19.70
2022-12-18T06:21:33.693Z,19.30
2022-12-18T06:24:01.404Z,19.00
2022-12-18T06:26:28.908Z,19.60
2022-12-18T06:28:56.526Z,18.40
2022-12-18T06:31:24.126Z,19.70
2022-12-18T06:33:51.872Z,19.80
2022-12-18T06:36:19.293Z,18.50
2022-12-18T06:38:46.988Z,20.30
2022-12-18T06:41:19.950Z,19.80
2022-12-18T06:43:47.637Z,20.80
2022-12-18T06:46:15.112Z,20.40
2022-12-18T06:48:42.571Z,20.40
2022-12-18T06:51:10.281Z,19.10
2022-12-18T06:53:38.086Z,19.10
2022-12-18T06:56:10.576Z,19.60
2022-12-18T06:58:40.116Z,20.40
2022-12-18T07:01:11.557Z,18.90
2022-12-18T07:03:41.508Z,19.50
2022-12-18T07:06:19.098Z,20.00
2022-12-18T07:08:48.174Z,19.00
2022-12-18T07:11:16.801Z,18.90
2022-12-18T07:13:46.292Z,19.50
2022-12-18T07:16:24.827Z,19.60
2022-12-18T07:18:55.707Z,19.90
2022-12-18T07:21:25.277Z,20.10
2022-12-18T07:23:53.140Z,17.70
2022-12-18T07:26:22.540Z,19.20
2022-12-18T07:28:51.065Z,18.90
2022-12-18T07:31:22.245Z,18.10
2022-12-18T07:33:51.761Z,19.10
2022-12-18T07:36:20.187Z,19.80
2022-12-18T07:38:49.253Z,19.90
2022-12-18T07:41:17.524Z,19.50
2022-12-18T07:43:45.135Z,19.50
2022-12-18T07:46:16.785Z,19.50
2022-12-18T07:48:49.463Z,19.50
2022-12-18T07:51:19.489Z,20.80
2022-12-18T07:53:49.569Z,19.50
2022-12-18T07:56:29.520Z,19.80
2022-12-18T07:58:58.862Z,18.80
2022-12-18T08:01:26.663Z,19.00
2022-12-18T08:03:54.247Z,18.90
2022-12-18T08:06:22.518Z,19.20
2022-12-18T08:08:56.473Z,19.50
2022-12-18T08:11:26.557Z,18.10
2022-12-18T08:13:54.328Z,19.20
2022-12-18T08:16:24.276Z,18.30
2022-12-18T08:18:54.186Z,18.20
2022-12-18T08:21:27.286Z,19.30
2022-12-18T08:23:58.369Z,19.40
2022-12-18T08:26:29.034Z,20.30
2022-12-18T08:28:58.748Z,20.30
2022-12-18T08:31:28.210Z,19.10
2022-12-18T08:33:56.368Z,18.40
2022-12-18T08:36:25.815Z,18.90
2022-12-18T08:38:54.753Z,16.90
2022-12-18T08:41:22.378Z,16.90
2022-12-18T08:44:08.777Z,18.80
2022-12-18T08:46:43.106Z,18.80
2022-12-18T08:49:12.010Z,18.10
2022-12-18T08:51:40.839Z,19.00
2022-12-18T08:54:08.651Z,19.60
2022-12-18T08:56:36.183Z,19.00
2022-12-18T08:59:03.833Z,20.20
2022-12-18T09:01:32.004Z,20.20
2022-12-18T09:03:59.830Z,19.60
2022-12-18T09:06:27.561Z,18.90
2022-12-18T09:08:55.310Z,18.80
2022-12-18T09:11:28.755Z,19.80
2022-12-18T09:13:58.010Z,20.10
2022-12-18T09:16:32.266Z,18.40
2022-12-18T09:19:01.001Z,19.10
2022-12-18T09:21:35.899Z,18.50
2022-12-18T09:24:08.859Z,17.80
2022-12-18T09:26:37.348Z,19.80
2022-12-18T09:29:05.097Z,17.80
2022-12-18T09:31:32.562Z,19.00
2022-12-18T09:34:00.124Z,18.50
2022-12-18T09:36:27.796Z,19.40
2022-12-18T09:38:55.842Z,19.40
2022-12-18T09:41:38.593Z,20.80
2022-12-18T09:44:45.017Z,20.10
2022-12-18T09:47:37.650Z,18.50
2022-12-18T09:50:22.950Z,19.30
2022-12-18T09:52:54.716Z,18.80
2022-12-18T09:55:37.370Z,19.40
2022-12-18T09:58:17.641Z,20.00
2022-12-18T10:00:45.228Z,21.60
2022-12-18T10:03:16.964Z,19.40
2022-12-18T10:06:08.684Z,19.60
2022-12-18T10:11:32.874Z,17.20
2022-12-18T10:14:31.598Z,19.30
2022-12-18T10:17:47.580Z,17.70
2022-12-18T10:20:42.441Z,18.10
2022-12-18T10:23:28.052Z,17.20
2022-12-18T10:26:04.958Z,18.00
2022-12-18T10:28:47.624Z,19.30
2022-12-18T10:31:24.536Z,18.50
2022-12-18T10:33:55.282Z,18.30
2022-12-18T10:36:25.648Z,19.20
2022-12-18T10:38:53.266Z,16.80
2022-12-18T10:41:23.048Z,16.70
2022-12-18T10:44:24.370Z,17.90
2022-12-18T10:46:59.480Z,15.90
2022-12-18T10:49:30.610Z,16.90
2022-12-18T10:52:23.326Z,17.00
2022-12-18T10:54:56.008Z,17.00
2022-12-18T10:57:37.984Z,19.30
2022-12-18T11:00:36.907Z,17.60
2022-12-18T11:03:10.087Z,17.30
2022-12-18T11:05:37.967Z,17.40
2022-12-18T11:08:05.572Z,16.30
2022-12-18T11:10:38.412Z,17.60
2022-12-18T11:13:25.920Z,16.00
2022-12-18T11:15:53.708Z,18.00
2022-12-18T11:18:34.965Z,16.20
2022-12-18T11:21:10.476Z,17.60
2022-12-18T11:23:49.916Z,16.80
2022-12-18T11:26:18.069Z,15.30
2022-12-18T11:28:50.418Z,16.60
2022-12-18T11:31:29.005Z,15.60
2022-12-18T11:34:28.236Z,16.20
2022-12-18T11:36:53.770Z,15.50
2022-12-18T11:40:09.155Z,16.30
2022-12-18T11:43:02.240Z,16.30
2022-12-18T11:45:36.495Z,15.50
2022-12-18T11:48:19.270Z,16.20
2022-12-18T11:50:56.655Z,17.00
2022-12-18T11:53:27.118Z,15.80
2022-12-18T11:56:31.295Z,16.10
2022-12-18T11:59:43.615Z,15.70
2022-12-18T12:03:04.862Z,17.70
2022-12-18T12:05:53.027Z,16.40
2022-12-18T12:08:45.545Z,19.00
2022-12-18T12:11:22.596Z,17.30
2022-12-18T12:14:22.336Z,17.30
2022-12-18T12:17:08.263Z,17.80
2022-12-18T12:19:47.188Z,16.40
2022-12-18T12:22:32.837Z,19.10
2022-12-18T12:25:18.619Z,17.20
2022-12-18T12:28:53.832Z,17.90
2022-12-18T12:31:35.230Z,16.50
2022-12-18T12:37:07.937Z,15.90
2022-12-18T12:39:41.499Z,16.20
2022-12-18T12:42:56.167Z,16.60
2022-12-18T12:45:42.519Z,16.10
2022-12-18T12:48:25.843Z,20.40
2022-12-18T12:50:55.329Z,20.00
2022-12-18T12:53:30.550Z,18.90
2022-12-18T12:55:59.304Z,17.50
2022-12-18T12:58:46.651Z,16.70
2022-12-18T13:01:38.702Z,17.40
2022-12-18T13:04:34.129Z,16.20
2022-12-18T13:07:19.172Z,17.20
2022-12-18T13:10:27.047Z,15.80
2022-12-18T13:13:21.186Z,15.50
2022-12-18T13:16:08.009Z,15.80
2022-12-18T13:18:36.522Z,16.30
2022-12-18T13:21:32.475Z,17.30
2022-12-18T13:24:27.386Z,16.20
2022-12-18T13:26:55.363Z,17.20
2022-12-18T13:29:45.129Z,16.90
2022-12-18T13:32:24.274Z,16.10
2022-12-18T13:35:31.388Z,15.70
2022-12-18T13:37:58.784Z,16.40
2022-12-18T13:40:41.688Z,15.90
2022-12-18T13:43:21.174Z,14.20
2022-12-18T13:46:19.064Z,17.60
2022-12-18T13:48:56.879Z,16.90
2022-12-18T13:51:26.359Z,16.40
2022-12-18T13:54:48.117Z,15.50
2022-12-18T13:57:35.021Z,15.70
2022-12-18T14:00:29.861Z,16.20
2022-12-18T14:03:01.423Z,16.00
2022-12-18T14:05:32.879Z,16.50
2022-12-18T14:08:06.390Z,15.50
2022-12-18T14:10:47.829Z,17.70
2022-12-18T14:13:32.460Z,15.70
2022-12-18T14:16:05.323Z,17.70
2022-12-18T14:18:40.822Z,17.30
2022-12-18T14:21:22.033Z,15.40
2022-12-18T14:23:49.828Z,15.60
2022-12-18T14:26:30.276Z,16.40
2022-12-18T14:29:02.278Z,15.80
2022-12-18T14:31:32.783Z,16.40
2022-12-18T14:34:00.222Z,15.80
2022-12-18T14:36:30.427Z,16.20
2022-12-18T14:39:00.285Z,18.70
2022-12-18T14:41:29.500Z,18.00
2022-12-18T14:44:07.472Z,17.10
2022-12-18T14:46:43.337Z,14.70
2022-12-18T14:49:31.001Z,16.50
2022-12-18T14:52:01.401Z,16.10
2022-12-18T14:54:30.786Z,15.60
2022-12-18T14:57:04.571Z,15.40
2022-12-18T14:59:32.892Z,15.60
2022-12-18T15:02:21.827Z,16.30
2022-12-18T15:05:14.977Z,15.30
2022-12-18T15:07:55.099Z,16.10
2022-12-18T15:10:31.107Z,15.30
2022-12-18T15:13:00.692Z,13.70
2022-12-18T15:15:34.266Z,13.40
2022-12-18T15:18:11.345Z,15.20
2022-12-18T15:20:57.926Z,15.20
2022-12-18T15:23:27.237Z,14.70
2022-12-18T15:26:10.070Z,14.40
2022-12-18T15:28:45.375Z,14.60
2022-12-18T15:31:13.263Z,14.60
2022-12-18T15:34:04.654Z,14.10
2022-12-18T15:36:32.383Z,15.60
2022-12-18T15:39:05.115Z,16.40
2022-12-18T15:41:36.723Z,15.30
2022-12-18T15:44:24.538Z,14.20
2022-12-18T15:46:52.010Z,13.50
2022-12-18T15:49:19.460Z,14.90
2022-12-18T15:51:58.329Z,13.80
2022-12-18T15:54:44.777Z,15.30
2022-12-18T15:57:25.239Z,13.80
2022-12-18T15:59:57.321Z,13.70
2022-12-18T16:02:25.800Z,13.40
2022-12-18T16:04:54.560Z,14.00
2022-12-18T16:07:24.669Z,15.10
2022-12-18T16:09:53.408Z,14.30
2022-12-18T16:12:23.806Z,13.20
2022-12-18T16:14:51.416Z,13.10
2022-12-18T16:17:19.038Z,14.10
2022-12-18T16:19:46.752Z,14.30
2022-12-18T16:22:27.814Z,13.60
2022-12-18T16:24:57.444Z,14.10
2022-12-18T16:27:25.648Z,14.70
2022-12-18T16:29:53.043Z,14.10
2022-12-18T16:32:22.499Z,14.90
2022-12-18T16:34:50.987Z,13.70
2022-12-18T16:37:18.469Z,13.60
2022-12-18T16:39:46.008Z,13.90
2022-12-18T16:42:20.637Z,13.70
2022-12-18T16:44:50.164Z,14.40
2022-12-18T16:47:18.146Z,14.70
2022-12-18T16:49:46.449Z,15.30
2022-12-18T16:52:14.611Z,14.40
2022-12-18T16:54:42.415Z,14.40
2022-12-18T16:57:15.049Z,15.60
2022-12-18T16:59:42.591Z,14.90
2022-12-18T17:02:22.836Z,14.90
2022-12-18T17:04:57.266Z,15.30
2022-12-18T17:07:25.886Z,15.90
2022-12-18T17:09:54.314Z,15.50
2022-12-18T17:12:22.880Z,16.70
2022-12-18T17:14:50.500Z,15.40
2022-12-18T17:17:21.921Z,15.20
2022-12-18T17:19:51.963Z,15.70
2022-12-18T17:22:21.245Z,16.30
2022-12-18T17:24:49.130Z,17.70
2022-12-18T17:27:16.607Z,15.80
2022-12-18T17:29:47.698Z,15.70
2022-12-18T17:32:17.394Z,16.00
2022-12-18T17:34:44.941Z,15.50
2022-12-18T17:37:12.633Z,15.50
2022-12-18T17:39:40.566Z,15.30
2022-12-18T17:42:10.656Z,16.00
2022-12-18T17:44:43.508Z,15.10
2022-12-18T17:47:13.102Z,15.80
2022-12-18T17:49:40.807Z,15.40
2022-12-18T17:52:08.465Z,14.80
2022-12-18T17:54:39.759Z,16.40
2022-12-18T17:59:36.478Z,15.40
2022-12-18T18:02:04.183Z,14.80
2022-12-18T18:04:32.331Z,15.50
2022-12-18T18:06:59.730Z,16.80
2022-12-18T18:09:27.500Z,16.70
2022-12-18T18:12:13.404Z,21.90
2022-12-18T18:14:41.024Z,18.10
2022-12-18T18:17:08.523Z,18.10
2022-12-18T18:19:36.077Z,16.00
2022-12-18T18:22:03.779Z,17.00
2022-12-18T18:24:33.622Z,16.20
2022-12-18T18:27:01.092Z,16.20
2022-12-18T18:29:30.614Z,16.80
2022-12-18T18:31:59.259Z,16.70
2022-12-18T18:34:30.469Z,18.70
2022-12-18T18:37:01.062Z,19.10
2022-12-18T18:39:29.340Z,20.00
2022-12-18T18:41:56.933Z,23.20
2022-12-18T18:44:25.986Z,22.20
2022-12-18T18:46:56.584Z,20.00
2022-12-18T18:49:27.680Z,21.40
2022-12-18T18:54:25.596Z,20.80
2022-12-18T18:59:40.432Z,20.50
2022-12-18T19:02:13.315Z,21.20
2022-12-18T19:04:45.648Z,19.10
2022-12-18T19:07:22.299Z,18.50
2022-12-18T19:10:04.411Z,18.90
2022-12-18T19:12:53.985Z,18.60
2022-12-18T19:15:22.004Z,19.20
2022-12-18T19:17:49.676Z,20.20
2022-12-18T19:20:17.660Z,18.90
2022-12-18T19:22:53.824Z,17.30
2022-12-18T19:25:38.125Z,18.70
2022-12-18T19:28:09.468Z,17.00
2022-12-18T19:30:49.175Z,18.20
2022-12-18T19:33:44.648Z,17.70
2022-12-18T19:36:35.515Z,17.20
2022-12-18T19:39:13.201Z,18.40
2022-12-18T19:41:41.734Z,19.90
2022-12-18T19:44:12.963Z,19.90
2022-12-18T19:46:41.949Z,19.80
2022-12-18T19:49:18.064Z,19.20
2022-12-18T19:51:46.315Z,18.10
2022-12-18T19:54:16.939Z,17.70
2022-12-18T19:56:46.250Z,18.60
2022-12-18T19:59:14.131Z,18.60
2022-12-18T20:01:42.103Z,18.20
2022-12-18T20:04:09.829Z,18.60
2022-12-18T20:06:51.772Z,18.00
2022-12-18T20:09:20.145Z,17.70
2022-12-18T20:11:48.170Z,18.80
2022-12-18T20:14:22.321Z,17.40
2022-12-18T20:16:52.423Z,20.20
2022-12-18T20:19:21.047Z,19.60
2022-12-18T20:21:48.589Z,17.70
2022-12-18T20:24:16.062Z,19.40
2022-12-18T20:26:43.640Z,20.60
2022-12-18T20:29:11.171Z,20.10
2022-12-18T20:31:38.585Z,21.10
2022-12-18T20:34:07.025Z,19.80
2022-12-18T20:36:36.215Z,19.20
2022-12-18T20:39:06.446Z,18.60
2022-12-18T20:41:38.085Z,19.50
2022-12-18T20:46:54.509Z,19.90
2022-12-18T20:49:23.386Z,18.50
2022-12-18T20:51:53.831Z,17.90
2022-12-18T20:54:23.052Z,16.60
2022-12-18T20:56:51.512Z,17.30
2022-12-18T20:59:19.847Z,17.90
2022-12-18T21:01:48.946Z,16.60
2022-12-18T21:04:19.566Z,17.50
2022-12-18T21:06:54.182Z,18.30
2022-12-18T21:09:28.266Z,18.20
2022-12-18T21:12:22.213Z,17.60
2022-12-18T21:14:49.663Z,16.70
2022-12-18T21:17:17.675Z,18.40
2022-12-18T21:19:45.253Z,17.50
2022-12-18T21:22:13.871Z,17.80
2022-12-18T21:24:41.658Z,17.30
2022-12-18T21:27:09.130Z,17.90
2022-12-18T21:29:40.468Z,17.70
2022-12-18T21:32:09.217Z,18.20
2022-12-18T21:34:37.220Z,18.20
2022-12-18T21:37:04.902Z,22.00
2022-12-18T21:39:32.720Z,21.20
2022-12-18T21:42:19.158Z,23.60
2022-12-18T21:44:49.034Z,19.30
2022-12-18T21:47:22.814Z,16.40
2022-12-18T21:49:54.032Z,14.80
2022-12-18T21:52:32.282Z,14.30
2022-12-18T21:55:09.015Z,14.30
2022-12-18T21:57:40.078Z,14.50
2022-12-18T22:00:19.240Z,13.30
2022-12-18T22:03:02.319Z,13.50
2022-12-18T22:05:36.473Z,13.60
2022-12-18T22:08:04.029Z,12.20
2022-12-18T22:10:31.380Z,11.90
2022-12-18T22:12:58.828Z,12.70
2022-12-18T22:15:26.160Z,12.20
2022-12-18T22:17:59.939Z,13.80
2022-12-18T22:20:29.981Z,12.40
2022-12-18T22:22:58.211Z,12.30
2022-12-18T22:25:25.605Z,12.20
2022-12-18T22:28:11.825Z,12.60
2022-12-18T22:30:39.302Z,14.30
2022-12-18T22:33:06.672Z,13.10
2022-12-18T22:35:34.076Z,13.00
2022-12-18T22:38:01.813Z,12.70
2022-12-18T22:40:29.880Z,12.20
2022-12-18T22:42:57.625Z,13.40
2022-12-18T22:45:26.546Z,12.20
2022-12-18T22:47:54.147Z,11.90
2022-12-18T22:50:21.735Z,12.10
2022-12-18T22:52:49.095Z,12.50
2022-12-18T22:55:16.442Z,12.10
2022-12-18T22:57:43.842Z,12.40
2022-12-18T23:00:16.698Z,12.00
2022-12-18T23:02:46.212Z,12.20
2022-12-18T23:05:13.651Z,12.20
2022-12-18T23:07:41.068Z,12.30
2022-12-18T23:10:09.065Z,11.90
2022-12-18T23:12:37.579Z,12.20
2022-12-18T23:15:06.212Z,11.20
2022-12-18T23:17:33.586Z,12.90
2022-12-18T23:20:01.753Z,11.30
2022-12-18T23:22:30.459Z,12.40
2022-12-18T23:24:57.825Z,11.80
2022-12-18T23:27:25.170Z,11.10
2022-12-18T23:29:52.476Z,12.10
2022-12-18T23:32:21.164Z,11.80
2022-12-18T23:34:48.626Z,12.00
2022-12-18T23:37:35.354Z,11.90
2022-12-18T23:40:04.001Z,10.70
2022-12-18T23:42:31.312Z,12.40
2022-12-18T23:44:58.594Z,10.90
2022-12-18T23:47:27.129Z,11.30
2022-12-18T23:49:54.829Z,10.90
2022-12-18T23:52:22.298Z,10.90
2022-12-18T23:54:49.705Z,10.30
2022-12-18T23:57:17.273Z,11.00
2022-12-18T23:59:47.008Z,10.90
